Time;durP1;ratioP1;P1;durP2;ratioP2;P2;SDS_P1;SDS_P2;PMS_P1;PMS_P2;Temp;Humidity;BMP_temperature;BMP_pressure;BME280_temperature;BME280_humidity;BME280_pressure;Samples;Min_cycle;Max_cycle;Signal;HPM_P1;HPM_P2
2023/01/13 00:01:34;;;;;;;0.60;0.30;;;;;;;-144.22;100.00;60274.75;6245471;28;20241;-45
2023/01/13 00:04:37;;;;;;;0.20;0.20;;;;;;;-144.22;100.00;60274.75;6244537;28;20231;-45
2023/01/13 00:07:39;;;;;;;1.40;0.47;;;;;;;-144.22;100.00;60274.75;6240416;28;20328;-44
2023/01/13 00:10:47;;;;;;;1.07;0.30;;;;;;;-144.22;100.00;60274.75;6243616;28;20244;-44
2023/01/13 00:13:49;;;;;;;1.00;0.40;;;;;;;-144.22;100.00;60274.75;6242299;28;20238;-44
2023/01/13 00:16:51;;;;;;;2.70;0.43;;;;;;;-144.22;100.00;60274.75;6237288;28;20244;-43
2023/01/13 00:19:55;;;;;;;0.30;0.30;;;;;;;-144.22;100.00;60274.75;6240049;28;20227;-43
2023/01/13 00:22:58;;;;;;;1.40;0.37;;;;;;;188.01;100.00;60274.75;6242402;28;20234;-44
2023/01/13 00:26:04;;;;;;;1.03;0.23;;;;;;;-144.22;100.00;60274.75;6240608;28;20231;-43
2023/01/13 00:29:07;;;;;;;0.67;0.50;;;;;;;-144.22;100.00;60274.75;6244237;28;20681;-45
2023/01/13 00:32:09;;;;;;;4.60;0.40;;;;;;;2.43;100.00;60274.75;6251582;28;20225;-44
2023/01/13 00:35:11;;;;;;;1.90;0.30;;;;;;;-144.22;100.00;60274.75;6244245;28;20228;-43
2023/01/13 00:38:13;;;;;;;0.50;0.23;;;;;;;-144.22;100.00;60274.75;6242024;28;20582;-43
2023/01/13 00:41:21;;;;;;;0.80;0.20;;;;;;;-144.22;100.00;60274.75;6241074;28;20234;-43
2023/01/13 00:44:23;;;;;;;2.13;0.30;;;;;;;-144.22;100.00;60274.75;6236985;28;20411;-43
2023/01/13 00:47:25;;;;;;;0.30;0.30;;;;;;;-144.22;100.00;60274.75;6241855;28;20235;-43
2023/01/13 00:50:29;;;;;;;2.20;0.27;;;;;;;3.58;100.00;60274.75;6238446;28;20303;-43
2023/01/13 00:53:39;;;;;;;2.10;0.30;;;;;;;-144.22;100.00;60274.75;6240558;28;20231;-43
2023/01/13 00:56:42;;;;;;;2.17;0.30;;;;;;;-144.22;100.00;60274.75;6239571;28;20832;-43
2023/01/13 00:59:44;;;;;;;0.33;0.20;;;;;;;-144.22;100.00;60274.75;6243279;28;20334;-43
2023/01/13 01:02:48;;;;;;;3.13;0.40;;;;;;;-144.22;100.00;60274.75;6239962;28;20223;-43
2023/01/13 01:05:51;;;;;;;1.23;0.30;;;;;;;-144.22;100.00;60274.75;6245426;28;20244;-44
2023/01/13 01:08:55;;;;;;;0.20;0.13;;;;;;;-144.22;100.00;60274.75;6242199;28;20232;-43
2023/01/13 01:11:58;;;;;;;3.03;0.20;;;;;;;-144.22;100.00;60274.75;6241361;28;20264;-43
2023/01/13 01:15:01;;;;;;;0.30;0.30;;;;;;;-144.22;100.00;60274.75;6238654;28;20247;-43
2023/01/13 01:18:04;;;;;;;2.83;0.30;;;;;;;-144.22;100.00;60274.75;6240290;28;20461;-43
2023/01/13 01:21:07;;;;;;;0.30;0.20;;;;;;;-144.22;100.00;60274.75;6241064;28;20318;-45
2023/01/13 01:24:12;;;;;;;0.40;0.40;;;;;;;2.27;100.00;60274.75;6240016;28;20216;-44
2023/01/13 01:27:15;;;;;;;3.57;0.37;;;;;;;2.27;100.00;60274.75;6240886;28;20219;-43
2023/01/13 01:30:17;;;;;;;0.20;0.20;;;;;;;2.26;100.00;60274.75;6239216;28;20259;-43
2023/01/13 01:33:21;;;;;;;0.30;0.20;;;;;;;-144.22;100.00;60274.75;6240384;28;20207;-44
2023/01/13 01:36:30;;;;;;;0.20;0.20;;;;;;;-144.22;100.00;60274.75;6240313;28;20238;-43
2023/01/13 01:39:34;;;;;;;3.50;0.30;;;;;;;2.28;100.00;60274.75;6242037;28;20256;-43
2023/01/13 01:46:01;;;;;;;0.30;0.30;;;;;;;-144.22;100.00;60274.75;6239606;28;20223;-43
2023/01/13 01:49:29;;;;;;;2.07;0.43;;;;;;;-144.22;100.00;60274.75;6239922;28;20230;-43
2023/01/13 01:52:39;;;;;;;2.53;0.37;;;;;;;2.60;100.00;60274.75;6236646;28;20319;-44
2023/01/13 01:55:41;;;;;;;0.60;0.30;;;;;;;2.28;100.00;60274.75;6241705;28;20395;-43
2023/01/13 01:58:48;;;;;;;0.33;0.20;;;;;;;-144.22;100.00;60274.75;6243302;28;20239;-43
2023/01/13 02:01:51;;;;;;;0.30;0.20;;;;;;;-144.22;100.00;60274.75;6243391;28;20240;-43
2023/01/13 02:04:54;;;;;;;0.20;0.20;;;;;;;-144.22;100.00;60274.75;6248808;28;20571;-43
2023/01/13 02:07:59;;;;;;;1.33;0.57;;;;;;;-144.22;100.00;60274.75;6242771;28;20263;-43
2023/01/13 02:11:01;;;;;;;0.30;0.20;;;;;;;-144.22;100.00;60274.75;6248602;28;20333;-43
2023/01/13 02:14:03;;;;;;;1.03;0.30;;;;;;;2.22;100.00;60274.75;6244911;28;20241;-43
2023/01/13 02:17:20;;;;;;;1.43;0.20;;;;;;;2.19;100.00;60274.75;6243739;28;20286;-43
2023/01/13 02:20:50;;;;;;;0.67;0.20;;;;;;;2.11;100.00;60274.75;6243434;28;20231;-43
2023/01/13 02:28:11;;;;;;;0.20;0.10;;;;;;;2.03;100.00;60274.75;6243427;28;20872;-44
2023/01/13 02:35:12;;;;;;;1.70;0.20;;;;;;;-144.22;100.00;60274.75;6192910;28;20245;-44
2023/01/13 02:38:18;;;;;;;0.83;0.30;;;;;;;-144.22;100.00;60274.75;6197421;28;20235;-44
2023/01/13 02:45:09;;;;;;;1.33;0.10;;;;;;;-144.22;100.00;60274.75;6188603;28;20266;-43
2023/01/13 02:48:14;;;;;;;3.00;0.30;;;;;;;1.95;100.00;60274.75;6191737;28;20236;-43
2023/01/13 02:51:20;;;;;;;1.53;0.23;;;;;;;-144.22;100.00;60274.75;6192318;28;20220;-43
2023/01/13 02:54:27;;;;;;;0.73;0.10;;;;;;;-144.22;100.00;60274.75;6193102;28;20944;-43
2023/01/13 02:57:31;;;;;;;0.20;0.10;;;;;;;-144.22;100.00;60274.75;6187707;28;20270;-44
2023/01/13 03:00:36;;;;;;;0.10;0.10;;;;;;;-144.22;100.00;60274.75;6192777;28;20233;-43
2023/01/13 03:03:38;;;;;;;1.00;0.67;;;;;;;-144.22;100.00;60274.75;6193336;28;20327;-43
2023/01/13 03:06:49;;;;;;;0.40;0.20;;;;;;;-144.22;100.00;60274.75;6192830;28;20866;-44
2023/01/13 03:10:05;;;;;;;1.70;0.20;;;;;;;-144.22;100.00;60274.75;6210514;28;20720;-43
2023/01/13 03:13:20;;;;;;;1.23;0.20;;;;;;;-144.22;100.00;60274.75;6246583;28;20325;-43
2023/01/13 03:16:34;;;;;;;0.63;0.10;;;;;;;-144.22;100.00;60274.75;6240579;28;20317;-43
2023/01/13 03:19:49;;;;;;;1.37;0.20;;;;;;;-144.22;100.00;60274.75;6246753;28;20244;-43
2023/01/13 03:22:52;;;;;;;0.17;0.17;;;;;;;-144.22;100.00;60274.75;6243562;28;20237;-43
2023/01/13 03:26:18;;;;;;;0.17;0.17;;;;;;;-144.22;100.00;60274.75;6247282;28;20325;-43
2023/01/13 03:29:26;;;;;;;0.50;0.20;;;;;;;-144.22;100.00;60274.75;6225266;28;20285;-43
2023/01/13 03:32:36;;;;;;;0.10;0.10;;;;;;;-144.22;100.00;60274.75;6242260;28;20232;-44
2023/01/13 03:35:48;;;;;;;0.10;0.10;;;;;;;-144.22;100.00;60274.75;6245485;28;20237;-44
2023/01/13 03:38:58;;;;;;;1.50;0.20;;;;;;;-144.22;100.00;60274.75;6238877;28;20684;-43
2023/01/13 03:42:06;;;;;;;0.10;0.10;;;;;;;-144.22;100.00;60274.75;6243000;28;20237;-43
2023/01/13 03:45:17;;;;;;;0.10;0.10;;;;;;;-144.22;100.00;60274.75;6247049;28;20262;-43
2023/01/13 03:48:21;;;;;;;0.20;0.20;;;;;;;-144.22;100.00;60274.75;6246173;28;20276;-43
2023/01/13 03:51:26;;;;;;;0.20;0.20;;;;;;;-144.22;100.00;60274.75;6241946;28;20252;-45
2023/01/13 03:54:32;;;;;;;0.43;0.20;;;;;;;1.99;100.00;60274.75;6242684;28;20223;-45
2023/01/13 03:57:43;;;;;;;0.97;0.20;;;;;;;11.36;100.00;60274.75;6243012;28;20608;-44
2023/01/13 04:00:58;;;;;;;1.33;0.20;;;;;;;-144.22;100.00;60274.75;6242697;28;20318;-44
2023/01/13 04:04:04;;;;;;;0.90;0.20;;;;;;;-144.22;100.00;60274.75;6243935;28;20321;-43
2023/01/13 04:07:17;;;;;;;0.13;0.13;;;;;;;-144.22;100.00;60274.75;6241958;28;20239;-44
2023/01/13 04:10:30;;;;;;;0.40;0.37;;;;;;;-144.22;100.00;60274.75;6241420;28;20723;-44
2023/01/13 04:13:37;;;;;;;0.60;0.20;;;;;;;-144.22;100.00;60274.75;6245390;28;20249;-43
2023/01/13 04:16:41;;;;;;;0.13;0.10;;;;;;;-144.22;100.00;60274.75;6238667;28;20246;-43
2023/01/13 04:19:44;;;;;;;0.63;0.20;;;;;;;1.99;100.00;60274.75;6242689;28;20774;-44
2023/01/13 04:22:46;;;;;;;1.80;0.30;;;;;;;1.99;100.00;60274.75;6245345;28;20241;-45
2023/01/13 04:25:50;;;;;;;0.63;0.10;;;;;;;2.01;100.00;60274.75;6223464;28;20238;-44
2023/01/13 04:28:53;;;;;;;0.50;0.10;;;;;;;2.02;100.00;60274.75;6238217;28;20233;-44
2023/01/13 04:31:55;;;;;;;2.43;0.47;;;;;;;-144.22;100.00;60274.75;6242448;28;20709;-44
2023/01/13 04:34:57;;;;;;;0.60;0.10;;;;;;;2.11;100.00;60274.75;6242692;28;20636;-43
2023/01/13 04:38:06;;;;;;;0.67;0.20;;;;;;;2.15;100.00;60274.75;6240572;28;20287;-43
2023/01/13 04:41:08;;;;;;;0.57;0.20;;;;;;;2.17;100.00;60274.75;6240565;28;20608;-44
2023/01/13 04:44:10;;;;;;;0.97;0.20;;;;;;;2.18;100.00;60274.75;6240970;28;20274;-45
2023/01/13 04:47:12;;;;;;;0.40;0.20;;;;;;;2.19;100.00;60274.75;6240418;28;20610;-44
2023/01/13 04:50:18;;;;;;;0.60;0.30;;;;;;;2.20;100.00;60274.75;6239552;28;20227;-44
2023/01/13 04:53:20;;;;;;;2.63;0.20;;;;;;;2.23;100.00;60274.75;6240848;28;20239;-44
2023/01/13 04:56:22;;;;;;;1.40;0.20;;;;;;;2.22;100.00;60274.75;6243565;28;20373;-43
2023/01/13 04:59:27;;;;;;;0.23;0.20;;;;;;;2.20;100.00;60274.75;6242074;28;20231;-43
2023/01/13 05:02:29;;;;;;;1.07;0.10;;;;;;;2.19;100.00;60274.75;6240852;28;20578;-43
2023/01/13 05:05:32;;;;;;;1.13;0.23;;;;;;;2.18;100.00;60274.75;6244820;28;20234;-43
2023/01/13 05:08:35;;;;;;;0.30;0.30;;;;;;;-144.22;100.00;60274.75;6243463;28;20237;-44
2023/01/13 05:18:21;;;;;;;0.50;0.27;;;;;;;2.23;100.00;60274.75;6222556;28;21878;-44
2023/01/13 05:28:06;;;;;;;1.13;0.30;;;;;;;2.26;100.00;60274.75;6241825;28;20227;-43
2023/01/13 05:31:08;;;;;;;0.20;0.20;;;;;;;2.27;100.00;60274.75;6238898;28;20234;-44
2023/01/13 05:34:10;;;;;;;0.43;0.13;;;;;;;-144.22;100.00;60274.75;6242191;28;20472;-43
2023/01/13 05:37:12;;;;;;;1.20;0.20;;;;;;;-144.22;100.00;60274.75;6240164;28;20982;-43
2023/01/13 05:43:38;;;;;;;3.07;0.30;;;;;;;2.22;100.00;60274.75;6240391;28;20270;-43
2023/01/13 05:46:40;;;;;;;0.60;0.30;;;;;;;2.22;100.00;60274.75;6240541;28;20235;-43
2023/01/13 05:49:42;;;;;;;0.60;0.20;;;;;;;2.22;100.00;60274.75;6240653;28;20334;-43
2023/01/13 05:52:44;;;;;;;0.93;0.30;;;;;;;2.27;100.00;60274.75;6239082;28;20263;-44
2023/01/13 05:55:47;;;;;;;0.50;0.20;;;;;;;2.27;100.00;60274.75;6244196;28;20231;-43
2023/01/13 05:58:49;;;;;;;0.50;0.20;;;;;;;-144.22;100.00;60274.75;6239928;28;20239;-43
2023/01/13 06:01:52;;;;;;;0.10;0.10;;;;;;;2.28;100.00;60274.75;6240012;28;20730;-43
2023/01/13 06:04:54;;;;;;;0.63;0.20;;;;;;;2.28;100.00;60274.75;6262600;28;20578;-43
2023/01/13 06:07:58;;;;;;;0.33;0.20;;;;;;;-144.22;100.00;60274.75;6264562;28;20332;-43
2023/01/13 06:11:00;;;;;;;0.40;0.10;;;;;;;-144.22;100.00;60274.75;6266021;28;20234;-43
2023/01/13 06:14:02;;;;;;;1.40;0.20;;;;;;;-144.22;100.00;60274.75;6266290;28;20252;-43
2023/01/13 06:17:13;;;;;;;0.47;0.20;;;;;;;2.28;100.00;60274.75;6266138;28;20697;-43
2023/01/13 06:20:16;;;;;;;0.20;0.20;;;;;;;2.27;100.00;60274.75;6263011;28;20258;-43
2023/01/13 06:23:18;;;;;;;2.97;0.30;;;;;;;2.27;100.00;60274.75;6265014;28;20241;-45
2023/01/13 06:26:23;;;;;;;0.20;0.17;;;;;;;2.27;100.00;60274.75;6264790;28;20237;-46
2023/01/13 06:29:26;;;;;;;0.20;0.20;;;;;;;-144.22;100.00;60274.75;6262323;28;20237;-44
2023/01/13 06:32:37;;;;;;;0.50;0.20;;;;;;;2.36;100.00;60274.75;6266301;28;20245;-44
2023/01/13 06:35:45;;;;;;;2.27;0.30;;;;;;;-144.22;100.00;60274.75;6264824;28;20736;-43
2023/01/13 06:38:52;;;;;;;0.50;0.20;;;;;;;-144.22;100.00;60274.75;6265760;28;20276;-44
2023/01/13 06:45:16;;;;;;;2.47;0.30;;;;;;;-144.22;100.00;60274.75;6267253;28;20281;-43
2023/01/13 06:48:22;;;;;;;0.50;0.20;;;;;;;-144.22;100.00;60274.75;6269190;28;20217;-44
2023/01/13 06:51:25;;;;;;;2.00;0.30;;;;;;;-144.22;100.00;60274.75;6269640;28;20238;-43
2023/01/13 06:54:27;;;;;;;0.10;0.10;;;;;;;-144.22;100.00;60274.75;6268013;28;20283;-44
2023/01/13 06:57:29;;;;;;;0.43;0.20;;;;;;;-144.22;100.00;60274.75;6269514;28;20703;-44
2023/01/13 07:00:34;;;;;;;0.73;0.20;;;;;;;-144.22;100.00;60274.75;6261891;28;20234;-44
2023/01/13 07:03:39;;;;;;;0.30;0.20;;;;;;;-144.22;100.00;60274.75;6269302;28;20256;-44
2023/01/13 07:06:42;;;;;;;0.80;0.57;;;;;;;-144.22;100.00;60274.75;6267406;28;20230;-44
2023/01/13 07:09:44;;;;;;;0.40;0.33;;;;;;;188.01;100.00;60274.75;6258281;28;20225;-43
2023/01/13 07:16:08;;;;;;;0.20;0.20;;;;;;;-144.22;100.00;60274.75;6265249;28;20242;-43
2023/01/13 07:19:11;;;;;;;0.73;0.47;;;;;;;188.01;100.00;60274.75;6266933;28;20363;-44
2023/01/13 07:22:13;;;;;;;0.43;0.43;;;;;;;188.01;100.00;60274.75;6265667;28;20744;-43
2023/01/13 07:25:16;;;;;;;0.30;0.30;;;;;;;-144.22;100.00;60274.75;6267710;28;20238;-44
2023/01/13 07:28:18;;;;;;;0.50;0.50;;;;;;;-144.22;100.00;60274.75;6267871;28;20231;-43
2023/01/13 07:31:21;;;;;;;0.50;0.40;;;;;;;-144.22;100.00;60274.75;6269198;28;20311;-43
2023/01/13 07:34:26;;;;;;;3.03;0.60;;;;;;;-144.22;100.00;60274.75;6262505;28;20319;-44
2023/01/13 07:37:28;;;;;;;2.10;0.30;;;;;;;6.17;100.00;60274.75;6268628;28;20262;-44
2023/01/13 07:40:30;;;;;;;0.60;0.37;;;;;;;3.58;100.00;60274.75;6267143;28;20261;-43
2023/01/13 07:43:32;;;;;;;0.53;0.30;;;;;;;-144.22;100.00;60274.75;6269216;28;20229;-43
2023/01/13 07:46:36;;;;;;;1.77;0.50;;;;;;;-144.22;100.00;60274.75;6269284;28;20253;-44
2023/01/13 07:49:38;;;;;;;3.60;0.33;;;;;;;188.01;100.00;60274.75;6268782;28;20231;-43
2023/01/13 07:52:40;;;;;;;2.30;0.30;;;;;;;21.74;100.00;60274.75;6267152;28;20238;-44
2023/01/13 07:55:42;;;;;;;0.50;0.30;;;;;;;3.49;100.00;78207.31;6267844;28;20340;-44
2023/01/13 07:58:49;;;;;;;1.13;1.00;;;;;;;-144.22;100.00;60274.75;6269091;28;20311;-45
2023/01/13 08:01:52;;;;;;;1.10;0.47;;;;;;;177.61;100.00;60274.75;6266433;28;20231;-44
2023/01/13 08:04:54;;;;;;;2.20;0.33;;;;;;;188.01;100.00;60274.75;6269215;28;20322;-44
2023/01/13 08:07:56;;;;;;;0.33;0.33;;;;;;;-144.22;100.00;60274.75;6266053;28;20249;-44
2023/01/13 08:11:00;;;;;;;2.60;0.33;;;;;;;188.01;100.00;60274.75;6268986;28;20233;-43
2023/01/13 08:14:02;;;;;;;0.63;0.20;;;;;;;11.36;100.00;60274.75;6265081;28;20247;-43
2023/01/13 08:17:06;;;;;;;0.30;0.30;;;;;;;-144.22;100.00;60274.75;6268898;28;20368;-44
2023/01/13 08:20:09;;;;;;;1.27;0.30;;;;;;;-144.22;100.00;60274.75;6266080;28;20612;-45
2023/01/13 08:23:11;;;;;;;1.90;0.30;;;;;;;11.36;100.00;60274.75;6264995;28;20224;-44
2023/01/13 08:26:16;;;;;;;0.50;0.23;;;;;;;188.01;100.00;60274.75;6268026;28;20265;-44
2023/01/13 08:29:18;;;;;;;1.60;0.37;;;;;;;-144.22;100.00;60274.75;6266689;28;20231;-45
2023/01/13 08:32:20;;;;;;;0.33;0.17;;;;;;;-144.22;100.00;60274.75;6265051;28;20227;-43
2023/01/13 08:35:23;;;;;;;0.97;0.20;;;;;;;11.36;100.00;60274.75;6266528;28;20708;-44
2023/01/13 08:38:25;;;;;;;0.27;0.20;;;;;;;21.74;100.00;60274.75;6270590;28;20242;-44
2023/01/13 08:45:06;;;;;;;0.20;0.20;;;;;;;21.74;100.00;60274.75;6152167;28;20245;-43
2023/01/13 08:48:08;;;;;;;1.07;0.20;;;;;;;11.36;100.00;60274.75;6150812;28;20246;-43
2023/01/13 08:51:10;;;;;;;0.67;0.20;;;;;;;188.01;100.00;60274.75;6152570;28;20222;-44
2023/01/13 08:54:13;;;;;;;0.67;0.20;;;;;;;177.61;100.00;60274.75;6152444;28;20595;-44
2023/01/13 08:57:18;;;;;;;2.13;0.40;;;;;;;4.60;100.00;60274.75;6152036;28;20237;-43
2023/01/13 09:00:20;;;;;;;0.47;0.30;;;;;;;-144.22;100.00;60274.75;6152578;28;20219;-44
2023/01/13 09:03:22;;;;;;;0.77;0.20;;;;;;;188.01;100.00;60274.75;6152686;28;20233;-43
2023/01/13 09:06:25;;;;;;;0.20;0.20;;;;;;;188.01;100.00;60274.75;6152292;28;20364;-44
2023/01/13 09:09:27;;;;;;;1.10;0.33;;;;;;;177.61;100.00;60274.75;6152382;28;20317;-43
2023/01/13 09:15:51;;;;;;;0.37;0.33;;;;;;;177.61;100.00;60274.75;6153042;28;20239;-43
2023/01/13 09:18:53;;;;;;;0.40;0.23;;;;;;;188.01;100.00;60274.75;6209533;28;20315;-45
2023/01/13 09:21:56;;;;;;;1.50;0.30;;;;;;;-144.22;100.00;60274.75;6262195;28;20278;-44
2023/01/13 09:24:58;;;;;;;0.40;0.20;;;;;;;11.36;100.00;60274.75;6264234;28;20227;-44
2023/01/13 09:28:01;;;;;;;0.73;0.20;;;;;;;6.17;100.00;60274.75;6249749;28;20235;-44
2023/01/13 09:31:06;;;;;;;3.13;0.43;;;;;;;21.74;100.00;60274.75;6247529;28;20232;-43
2023/01/13 09:37:39;;;;;;;0.30;0.20;;;;;;;-144.22;100.00;60274.75;6262230;28;20705;-44
2023/01/13 09:40:42;;;;;;;2.23;1.07;;;;;;;-144.22;100.00;60274.75;6262928;28;20717;-43
2023/01/13 09:43:58;;;;;;;1.00;0.30;;;;;;;-144.22;100.00;60274.75;6263836;28;20230;-44
2023/01/13 09:47:06;;;;;;;0.30;0.30;;;;;;;-144.22;100.00;60274.75;6262399;28;20233;-44
2023/01/13 09:50:08;;;;;;;1.53;0.30;;;;;;;-144.22;100.00;60274.75;6243888;28;20286;-43
2023/01/13 09:53:19;;;;;;;0.87;0.40;;;;;;;6.01;100.00;60274.75;6264225;28;20242;-43
2023/01/13 09:56:24;;;;;;;0.60;0.40;;;;;;;-144.22;100.00;60274.75;6260859;28;20231;-43
2023/01/13 09:59:31;;;;;;;1.13;0.43;;;;;;;7.47;100.00;60274.75;6266231;28;20390;-43
2023/01/13 10:02:58;;;;;;;1.67;0.50;;;;;;;7.47;100.00;60274.75;6263832;28;20320;-43
2023/01/13 10:06:35;;;;;;;0.40;0.40;;;;;;;8.77;100.00;60274.75;6265526;28;20267;-43
2023/01/13 10:09:51;;;;;;;1.50;0.30;;;;;;;7.47;100.00;60274.75;6267846;28;20230;-43
2023/01/13 10:16:29;;;;;;;1.40;0.40;;;;;;;11.36;100.00;60274.75;6263436;28;20293;-43
2023/01/13 10:19:43;;;;;;;1.03;0.43;;;;;;;7.02;100.00;60274.75;6264460;28;20653;-44
2023/01/13 10:23:25;;;;;;;1.30;0.40;;;;;;;7.47;100.00;60274.75;6268423;28;20290;-43
2023/01/13 10:26:59;;;;;;;0.70;0.60;;;;;;;-144.22;100.00;60274.75;6264201;28;20219;-43
2023/01/13 10:30:19;;;;;;;0.30;0.30;;;;;;;-144.22;100.00;60274.75;6263147;28;20721;-43
2023/01/13 10:33:27;;;;;;;0.40;0.40;;;;;;;-144.22;100.00;60274.75;6267294;28;20268;-44
2023/01/13 10:36:29;;;;;;;0.30;0.30;;;;;;;-144.22;100.00;60274.75;6268264;28;20293;-44
2023/01/13 10:39:43;;;;;;;0.33;0.33;;;;;;;8.43;100.00;78916.06;6270851;28;20233;-44
2023/01/13 10:43:05;;;;;;;0.57;0.43;;;;;;;-144.22;100.00;60274.75;6271873;28;20713;-44
2023/01/13 10:46:16;;;;;;;0.40;0.40;;;;;;;-144.22;100.00;60274.75;6271198;28;20243;-44
2023/01/13 10:49:35;;;;;;;2.13;0.40;;;;;;;-144.22;100.00;60274.75;6262899;28;20320;-44
2023/01/13 10:52:54;;;;;;;0.73;0.30;;;;;;;9.12;100.00;60274.75;6270938;28;20326;-45
2023/01/13 10:56:01;;;;;;;0.50;0.40;;;;;;;-144.22;100.00;60274.75;6266848;28;20233;-45
2023/01/13 10:59:22;;;;;;;0.40;0.40;;;;;;;-144.22;100.00;60274.75;6263924;28;20245;-44
2023/01/13 11:02:24;;;;;;;0.50;0.40;;;;;;;-144.22;100.00;60274.75;6269117;28;20765;-45
2023/01/13 11:05:27;;;;;;;0.83;0.40;;;;;;;-144.22;100.00;60274.75;6268360;28;20230;-44
2023/01/13 11:08:42;;;;;;;0.60;0.50;;;;;;;188.01;100.00;60274.75;6268273;28;20566;-44
2023/01/13 11:11:49;;;;;;;0.40;0.37;;;;;;;-144.22;100.00;60274.75;6269412;28;20235;-42
2023/01/13 11:14:52;;;;;;;1.13;0.50;;;;;;;-144.22;100.00;60274.75;6272763;28;20236;-42
2023/01/13 11:18:28;;;;;;;1.00;0.40;;;;;;;-144.22;100.00;60274.75;6270568;28;20233;-43
2023/01/13 11:21:59;;;;;;;0.83;0.70;;;;;;;-144.22;100.00;60274.75;6233412;28;20224;-43
2023/01/13 11:25:09;;;;;;;0.37;0.37;;;;;;;-144.22;100.00;60274.75;6255329;28;20263;-44
2023/01/13 11:28:33;;;;;;;0.30;0.30;;;;;;;-144.22;100.00;60274.75;6243902;28;20238;-44
2023/01/13 11:32:10;;;;;;;0.90;0.40;;;;;;;10.43;100.00;60274.75;6242024;28;20235;-44
2023/01/13 11:35:19;;;;;;;0.50;0.40;;;;;;;-144.22;100.00;60274.75;6139892;28;20800;-44
2023/01/13 11:38:42;;;;;;;0.43;0.30;;;;;;;-144.22;100.00;60274.75;6143705;28;20242;-44
2023/01/13 11:45:35;;;;;;;0.77;0.50;;;;;;;11.21;100.00;79245.09;6166135;28;20232;-44
2023/01/13 11:48:42;;;;;;;1.27;0.50;;;;;;;-144.22;100.00;60274.75;6162000;28;20237;-45
2023/01/13 11:51:59;;;;;;;0.70;0.50;;;;;;;-144.22;100.00;60274.75;6166413;28;20843;-46
2023/01/13 11:55:16;;;;;;;0.30;0.30;;;;;;;-144.22;100.00;60274.75;6169895;28;20783;-45
2023/01/13 11:58:27;;;;;;;0.30;0.30;;;;;;;-144.22;100.00;60274.75;6165858;28;20233;-45
2023/01/13 12:02:00;;;;;;;1.47;0.40;;;;;;;-144.22;100.00;60274.75;6165964;28;20349;-45
2023/01/13 12:05:22;;;;;;;0.73;0.40;;;;;;;-144.22;100.00;60274.75;6165788;28;20319;-44
2023/01/13 12:08:49;;;;;;;0.70;0.50;;;;;;;-144.22;100.00;60274.75;6168254;28;20251;-44
2023/01/13 12:12:18;;;;;;;0.60;0.30;;;;;;;11.54;100.00;60274.75;6209390;28;20233;-47
2023/01/13 12:15:21;;;;;;;0.30;0.30;;;;;;;-144.22;100.00;60274.75;6249304;28;20264;-45
2023/01/13 12:18:38;;;;;;;0.40;0.40;;;;;;;-144.22;100.00;60274.75;6269264;28;20234;-45
2023/01/13 12:22:12;;;;;;;0.43;0.33;;;;;;;-144.22;100.00;60274.75;6263602;28;20226;-44
2023/01/13 12:25:23;;;;;;;0.70;0.50;;;;;;;-144.22;100.00;60274.75;6258007;28;20238;-44
2023/01/13 12:28:31;;;;;;;0.97;0.40;;;;;;;11.34;100.00;60274.75;6261562;28;20231;-44
2023/01/13 12:31:37;;;;;;;0.67;0.50;;;;;;;13.96;100.00;60274.75;6266507;28;20694;-44
2023/01/13 12:35:18;;;;;;;1.53;0.60;;;;;;;-144.22;100.00;60274.75;6268050;28;20234;-44
2023/01/13 12:38:28;;;;;;;0.43;0.43;;;;;;;-144.22;100.00;60274.75;6264446;28;20234;-44
2023/01/13 12:45:32;;;;;;;0.60;0.40;;;;;;;-144.22;100.00;60274.75;6163983;28;20684;-45
2023/01/13 12:48:58;;;;;;;0.33;0.33;;;;;;;-144.22;100.00;60274.75;6165394;28;20229;-44
2023/01/13 12:52:02;;;;;;;0.50;0.40;;;;;;;-144.22;100.00;60274.75;6162886;28;20236;-44
2023/01/13 12:55:08;;;;;;;0.50;0.50;;;;;;;-144.22;100.00;60274.75;6164200;28;20226;-45
2023/01/13 12:58:10;;;;;;;4.13;0.60;;;;;;;-144.22;100.00;60274.75;6164677;28;20587;-44
2023/01/13 13:01:13;;;;;;;0.30;0.30;;;;;;;10.71;100.00;60274.75;6165877;28;20710;-44
2023/01/13 13:04:37;;;;;;;0.23;0.23;;;;;;;-144.22;100.00;60274.75;6166092;28;20608;-44
2023/01/13 13:07:44;;;;;;;4.20;0.50;;;;;;;-144.22;100.00;60274.75;6160122;28;20351;-44
2023/01/13 13:13:16;;;;;;;0.50;0.40;;;;;;;-144.22;100.00;60274.75;6162188;28;20240;-45
2023/01/13 13:14:38;;;;;;;1.07;0.40;;;;;;;-144.22;100.00;60274.75;6164873;28;20233;-46
2023/01/13 13:17:41;;;;;;;1.20;0.30;;;;;;;10.18;100.00;60274.75;6167220;28;20687;-44
2023/01/13 13:21:08;;;;;;;0.50;0.40;;;;;;;-144.22;100.00;60274.75;6215416;28;20226;-45
2023/01/13 13:24:10;;;;;;;0.47;0.40;;;;;;;-144.22;100.00;60274.75;6260367;28;20599;-45
2023/01/13 13:27:27;;;;;;;0.43;0.43;;;;;;;-144.22;100.00;60274.75;6267089;28;20559;-44
2023/01/13 13:30:43;;;;;;;0.30;0.30;;;;;;;-144.22;100.00;60274.75;6264375;28;20249;-44
2023/01/13 13:33:56;;;;;;;0.20;0.20;;;;;;;-144.22;100.00;60274.75;6265305;28;20722;-44
2023/01/13 13:37:20;;;;;;;0.53;0.40;;;;;;;188.01;100.00;60274.75;6263359;28;20235;-44
2023/01/13 13:47:06;;;;;;;3.10;0.80;;;;;;;-144.22;100.00;60274.75;6262189;28;20510;-46
2023/01/13 13:50:22;;;;;;;7.00;4.30;;;;;;;-144.22;100.00;60274.75;6263679;28;20233;-45
2023/01/13 13:53:32;;;;;;;5.33;3.70;;;;;;;-144.22;100.00;60274.75;6266532;28;20237;-45
2023/01/13 13:56:41;;;;;;;7.03;4.83;;;;;;;-144.22;100.00;60274.75;6265166;28;20238;-44
2023/01/13 13:59:43;;;;;;;9.93;6.30;;;;;;;-144.22;100.00;60274.75;6267808;28;20261;-44
2023/01/13 14:02:55;;;;;;;8.67;5.93;;;;;;;-144.22;100.00;60274.75;6268748;28;20307;-44
2023/01/13 14:06:01;;;;;;;7.73;5.43;;;;;;;-144.22;100.00;60274.75;6273006;28;20227;-44
2023/01/13 14:09:16;;;;;;;8.33;5.73;;;;;;;-144.22;100.00;60274.75;6266364;28;20222;-44
2023/01/13 14:12:24;;;;;;;9.47;6.60;;;;;;;-144.22;100.00;60274.75;6267580;28;20233;-44
2023/01/13 14:15:35;;;;;;;8.23;5.67;;;;;;;-144.22;100.00;60274.75;6268631;28;20704;-44
2023/01/13 14:18:46;;;;;;;7.43;5.27;;;;;;;-144.22;100.00;60274.75;6267660;28;20233;-44
2023/01/13 14:21:48;;;;;;;8.97;6.37;;;;;;;-144.22;100.00;60274.75;6256491;28;20242;-44
2023/01/13 14:24:57;;;;;;;7.87;5.63;;;;;;;-144.22;100.00;60274.75;6268075;28;20380;-44
2023/01/13 14:28:17;;;;;;;7.53;5.53;;;;;;;-144.22;100.00;60274.75;6268749;28;20247;-44
2023/01/13 14:31:20;;;;;;;10.80;6.57;;;;;;;-144.22;100.00;60274.75;6269048;28;20236;-44
2023/01/13 14:34:24;;;;;;;8.47;6.00;;;;;;;8.25;100.00;60274.75;6268046;28;20526;-45
2023/01/13 14:37:39;;;;;;;7.63;6.53;;;;;;;-144.22;100.00;60274.75;6265680;28;20937;-44
2023/01/13 14:40:43;;;;;;;8.63;6.23;;;;;;;-144.22;100.00;60274.75;6265655;28;20290;-44
2023/01/13 14:43:48;;;;;;;9.47;5.90;;;;;;;-144.22;100.00;60274.75;6268202;28;20249;-44
2023/01/13 14:46:53;;;;;;;10.33;7.30;;;;;;;-144.22;100.00;60274.75;6265631;28;20329;-44
2023/01/13 14:50:18;;;;;;;10.73;7.63;;;;;;;-144.22;100.00;60274.75;6269378;28;20231;-44
2023/01/13 14:53:39;;;;;;;7.67;6.23;;;;;;;-144.22;100.00;60274.75;6265497;28;20286;-44
2023/01/13 14:56:43;;;;;;;13.60;8.47;;;;;;;11.36;100.00;60274.75;6264737;28;20312;-44
2023/01/13 14:59:56;;;;;;;10.67;8.07;;;;;;;-144.22;100.00;60274.75;6270160;28;20293;-45
2023/01/13 15:03:04;;;;;;;9.63;7.13;;;;;;;-144.22;100.00;60274.75;6267265;28;20234;-48
2023/01/13 15:06:23;;;;;;;8.07;6.43;;;;;;;-144.22;100.00;60274.75;6268539;28;20645;-45
2023/01/13 15:09:28;;;;;;;8.47;6.50;;;;;;;-144.22;100.00;60274.75;6265246;28;20231;-44
2023/01/13 15:12:30;;;;;;;10.27;7.13;;;;;;;-144.22;100.00;60274.75;6268286;28;20674;-44
2023/01/13 15:15:36;;;;;;;11.20;6.37;;;;;;;-144.22;100.00;60274.75;6270959;28;20226;-45
2023/01/13 15:18:40;;;;;;;8.23;6.60;;;;;;;-144.22;100.00;60274.75;6270570;28;20223;-44
2023/01/13 15:21:42;;;;;;;10.40;7.57;;;;;;;6.96;100.00;60274.75;6277463;28;20289;-43
2023/01/13 15:24:46;;;;;;;10.30;6.50;;;;;;;-144.22;100.00;60274.75;6275870;28;20705;-44
2023/01/13 15:27:51;;;;;;;10.50;7.30;;;;;;;-144.22;100.00;60274.75;6257149;28;20227;-43
2023/01/13 15:30:59;;;;;;;11.03;7.60;;;;;;;-144.22;100.00;60274.75;6270415;28;20262;-44